Summerwind — WDF3461 — position and weather

sailwx.info

Track history (hours):
 
Tides and Currents Weather Stations Pressure Air Temp Water Temp Dewpoint Dewpoint Depression Visibility Wind Speed Wind Dir Waves Ship Positions

Summerwind (United States)

Ship's website: http://www.usmma.edu/waterfront

Owner: US Merchant Marine Academy, Kings Point, NY. More information available from US FCC via Universal Licensing System and Coast Guard Vessel Documentation Center.

Last reported at 2017-Jun-22 21:24 UTC. Time now 2017-Jun-26 12:00 UTC.
Position N 38°59' W 076°29'.

Length 30 m.

Type: Sailing vessel. MMSI: 367440150.

Date/timePositionNaut miles runAvg speedWind from/ knotsBaromVisibWave heightAir tempDewpointWater temp
2017-Jun-22 21:24N 38°59' W 076°29'5 4.6
2017-Jun-22 20:13N 39°01' W 076°22'21 7.1
2017-Jun-22 17:12N 39°21' W 076°11'2 8.2
2017-Jun-22 16:55N 39°22' W 076°08'3 7.9
2017-Jun-22 16:30N 39°23' W 076°04'4 8.0
2017-Jun-22 15:57N 39°26' W 076°00'4 8.0
2017-Jun-22 15:30N 39°29' W 075°57'4 7.9
2017-Jun-22 15:00N 39°31' W 075°53'7 7.5
2017-Jun-22 14:00N 39°33' W 075°43'3 6.7
2017-Jun-22 13:30N 39°33' W 075°39'3 6.3
2017-Jun-22 13:00N 39°33' W 075°35'2 4.9
2017-Jun-22 12:30N 39°32' W 075°33'4 7.0
2017-Jun-22 11:58N 39°28' W 075°34'2 3.9
2017-Jun-22 11:30N 39°26' W 075°32'4 7.9
2017-Jun-22 11:00N 39°23' W 075°29'4 7.3
2017-Jun-22 10:30N 39°21' W 075°26'4 7.2
2017-Jun-22 10:00N 39°18' W 075°23'3 6.6
2017-Jun-22 09:30N 39°15' W 075°20'3 6.0
2017-Jun-22 09:00N 39°13' W 075°18'3 6.7
2017-Jun-22 08:30N 39°10' W 075°16'3 6.8
2017-Jun-22 08:00N 39°08' W 075°13'3 6.4
2017-Jun-22 07:31N 39°05' W 075°11'3 6.4
2017-Jun-22 07:00N 39°02' W 075°09'3 6.4
2017-Jun-22 06:30N 38°59' W 075°07'3 6.3
2017-Jun-22 05:59N 38°56' W 075°05'3 5.5
2017-Jun-22 05:30N 38°54' W 075°04'2 4.4
2017-Jun-22 04:59N 38°52' W 075°03'2 4.7
2017-Jun-22 04:30N 38°49' W 075°03'3 5.0
2017-Jun-22 04:00N 38°49' W 074°59'3 6.3
2017-Jun-22 03:30N 38°51' W 074°56'3 6.3
2017-Jun-22 03:00N 38°53' W 074°53'3 6.1
2017-Jun-22 02:30N 38°56' W 074°52'2 3.2
2017-Jun-22 02:00N 38°57' W 074°53'0 0.0
2017-Jun-22 01:30N 38°57' W 074°53'48 3.8
2017-Jun-21 12:54N 39°31' W 074°10'2 4.6
2017-Jun-21 12:30N 39°32' W 074°08'2 4.8
2017-Jun-21 12:00N 39°34' W 074°07'3 5.0
2017-Jun-21 11:30N 39°36' W 074°05'3 5.1
2017-Jun-21 11:00N 39°38' W 074°03'2 5.0
2017-Jun-21 10:30N 39°41' W 074°01'2 4.9
2017-Jun-21 10:00N 39°43' W 073°60'48 5.4
2017-Jun-21 01:07N 40°31' W 073°60'1 8.0
2017-Jun-21 00:59N 40°32' W 074°01'4 7.8
2017-Jun-21 00:30N 40°35' W 074°02'4 8.0
2017-Jun-21 00:00N 40°39' W 074°03'2 4.7
2017-Jun-20 23:30N 40°42' W 074°02'3 6.2
2017-Jun-20 22:59N 40°43' W 073°58'67 4.1
2017-Jun-20 06:34N 41°07' W 072°35'1 7.2
2017-Jun-20 06:27N 41°07' W 072°34'3 7.0
2017-Jun-20 06:00N 41°08' W 072°30'3 6.5
2017-Jun-20 05:30N 41°09' W 072°26'3 5.4
2017-Jun-20 05:00N 41°10' W 072°23'6 4.2
2017-Jun-20 03:40N 41°11' W 072°15'1 4.0
2017-Jun-20 03:23N 41°12' W 072°14'3 4.9
2017-Jun-20 02:52N 41°14' W 072°12'  
2017-Jun-16 02:22N 41°00' W 071°37'4 7.4
2017-Jun-16 01:52N 40°58' W 071°41'3 7.3
2017-Jun-16 01:30N 40°56' W 071°44'79 6.5
2017-Jun-15 13:27N 39°57' W 072°52'4 6.6
2017-Jun-15 12:53N 39°54' W 072°55'3 6.9
2017-Jun-15 12:27N 39°51' W 072°58'4 6.7
2017-Jun-15 11:53N 39°48' W 073°00'2 4.6
2017-Jun-15 11:28N 39°47' W 073°02'4 7.1
2017-Jun-15 10:58N 39°44' W 073°04'3 7.1
2017-Jun-15 10:30N 39°41' W 073°07'3 6.8
2017-Jun-15 10:00N 39°38' W 073°10'3 6.6
2017-Jun-15 09:30N 39°36' W 073°13'3 6.6
2017-Jun-15 09:00N 39°34' W 073°16'3 6.5
2017-Jun-15 08:30N 39°31' W 073°19'3 6.5
2017-Jun-15 08:00N 39°29' W 073°22'37 7.1
2017-Jun-15 02:52N 39°06' W 073°58'4 7.5
2017-Jun-15 02:20N 39°04' W 074°03'2 6.8
2017-Jun-15 02:00N 39°03' W 074°05'153 5.2
2017-Jun-13 20:46N 36°60' W 076°01'  
Track history (hours):
 
Tides and Currents Weather Stations Pressure Air Temp Water Temp Dewpoint Dewpoint Depression Visibility Wind Speed Wind Dir Waves Ship Positions

Summerwind (United States)

Ship's website: http://www.usmma.edu/waterfront

Owner: US Merchant Marine Academy, Kings Point, NY. More information available from US FCC via Universal Licensing System and Coast Guard Vessel Documentation Center.

Last reported at 2017-Jun-22 21:24 UTC. Time now 2017-Jun-26 12:00 UTC.
Position N 38°59' W 076°29'.

Length 30 m.

Type: Sailing vessel. MMSI: 367440150.

Date/timePositionNaut miles runAvg speedWind from/ knotsBaromVisibWave heightAir tempDewpointWater temp
2017-Jun-22 21:24N 38°59' W 076°29'5 4.6
2017-Jun-22 20:13N 39°01' W 076°22'21 7.1
2017-Jun-22 17:12N 39°21' W 076°11'2 8.2
2017-Jun-22 16:55N 39°22' W 076°08'3 7.9
2017-Jun-22 16:30N 39°23' W 076°04'4 8.0
2017-Jun-22 15:57N 39°26' W 076°00'4 8.0
2017-Jun-22 15:30N 39°29' W 075°57'4 7.9
2017-Jun-22 15:00N 39°31' W 075°53'7 7.5
2017-Jun-22 14:00N 39°33' W 075°43'3 6.7
2017-Jun-22 13:30N 39°33' W 075°39'3 6.3
2017-Jun-22 13:00N 39°33' W 075°35'2 4.9
2017-Jun-22 12:30N 39°32' W 075°33'4 7.0
2017-Jun-22 11:58N 39°28' W 075°34'2 3.9
2017-Jun-22 11:30N 39°26' W 075°32'4 7.9
2017-Jun-22 11:00N 39°23' W 075°29'4 7.3
2017-Jun-22 10:30N 39°21' W 075°26'4 7.2
2017-Jun-22 10:00N 39°18' W 075°23'3 6.6
2017-Jun-22 09:30N 39°15' W 075°20'3 6.0
2017-Jun-22 09:00N 39°13' W 075°18'3 6.7
2017-Jun-22 08:30N 39°10' W 075°16'3 6.8
2017-Jun-22 08:00N 39°08' W 075°13'3 6.4
2017-Jun-22 07:31N 39°05' W 075°11'3 6.4
2017-Jun-22 07:00N 39°02' W 075°09'3 6.4
2017-Jun-22 06:30N 38°59' W 075°07'3 6.3
2017-Jun-22 05:59N 38°56' W 075°05'3 5.5
2017-Jun-22 05:30N 38°54' W 075°04'2 4.4
2017-Jun-22 04:59N 38°52' W 075°03'2 4.7
2017-Jun-22 04:30N 38°49' W 075°03'3 5.0
2017-Jun-22 04:00N 38°49' W 074°59'3 6.3
2017-Jun-22 03:30N 38°51' W 074°56'3 6.3
2017-Jun-22 03:00N 38°53' W 074°53'3 6.1
2017-Jun-22 02:30N 38°56' W 074°52'2 3.2
2017-Jun-22 02:00N 38°57' W 074°53'0 0.0
2017-Jun-22 01:30N 38°57' W 074°53'48 3.8
2017-Jun-21 12:54N 39°31' W 074°10'2 4.6
2017-Jun-21 12:30N 39°32' W 074°08'2 4.8
2017-Jun-21 12:00N 39°34' W 074°07'3 5.0
2017-Jun-21 11:30N 39°36' W 074°05'3 5.1
2017-Jun-21 11:00N 39°38' W 074°03'2 5.0
2017-Jun-21 10:30N 39°41' W 074°01'2 4.9
2017-Jun-21 10:00N 39°43' W 073°60'48 5.4
2017-Jun-21 01:07N 40°31' W 073°60'1 8.0
2017-Jun-21 00:59N 40°32' W 074°01'4 7.8
2017-Jun-21 00:30N 40°35' W 074°02'4 8.0
2017-Jun-21 00:00N 40°39' W 074°03'2 4.7
2017-Jun-20 23:30N 40°42' W 074°02'3 6.2
2017-Jun-20 22:59N 40°43' W 073°58'67 4.1
2017-Jun-20 06:34N 41°07' W 072°35'1 7.2
2017-Jun-20 06:27N 41°07' W 072°34'3 7.0
2017-Jun-20 06:00N 41°08' W 072°30'3 6.5
2017-Jun-20 05:30N 41°09' W 072°26'3 5.4
2017-Jun-20 05:00N 41°10' W 072°23'6 4.2
2017-Jun-20 03:40N 41°11' W 072°15'1 4.0
2017-Jun-20 03:23N 41°12' W 072°14'3 4.9
2017-Jun-20 02:52N 41°14' W 072°12'  
2017-Jun-16 02:22N 41°00' W 071°37'4 7.4
2017-Jun-16 01:52N 40°58' W 071°41'3 7.3
2017-Jun-16 01:30N 40°56' W 071°44'79 6.5
2017-Jun-15 13:27N 39°57' W 072°52'4 6.6
2017-Jun-15 12:53N 39°54' W 072°55'3 6.9
2017-Jun-15 12:27N 39°51' W 072°58'4 6.7
2017-Jun-15 11:53N 39°48' W 073°00'2 4.6
2017-Jun-15 11:28N 39°47' W 073°02'4 7.1
2017-Jun-15 10:58N 39°44' W 073°04'3 7.1
2017-Jun-15 10:30N 39°41' W 073°07'3 6.8
2017-Jun-15 10:00N 39°38' W 073°10'3 6.6
2017-Jun-15 09:30N 39°36' W 073°13'3 6.6
2017-Jun-15 09:00N 39°34' W 073°16'3 6.5
2017-Jun-15 08:30N 39°31' W 073°19'3 6.5
2017-Jun-15 08:00N 39°29' W 073°22'37 7.1
2017-Jun-15 02:52N 39°06' W 073°58'4 7.5
2017-Jun-15 02:20N 39°04' W 074°03'2 6.8
2017-Jun-15 02:00N 39°03' W 074°05'153 5.2
2017-Jun-13 20:46N 36°60' W 076°01'  

Dump ship's entire track history